createdAt,value
2023-03-05T00:00:31.685Z,6.85
2023-03-05T00:02:59.751Z,6.85
2023-03-05T00:05:27.963Z,6.68
2023-03-05T00:07:55.867Z,6.89
2023-03-05T00:10:23.720Z,6.92
2023-03-05T00:12:51.573Z,6.90
2023-03-05T00:15:20.825Z,6.77
2023-03-05T00:17:48.739Z,6.73
2023-03-05T00:20:16.855Z,6.87
2023-03-05T00:22:45.136Z,6.73
2023-03-05T00:25:13.332Z,6.86
2023-03-05T00:27:41.244Z,6.74
2023-03-05T00:30:10.576Z,6.83
2023-03-05T00:32:39.882Z,6.82
2023-03-05T00:35:08.601Z,6.86
2023-03-05T00:37:36.608Z,6.88
2023-03-05T00:40:05.428Z,6.88
2023-03-05T00:42:38.578Z,6.88
2023-03-05T00:45:07.957Z,6.90
2023-03-05T00:47:36.265Z,6.35
2023-03-05T00:50:07.669Z,6.61
2023-03-05T00:52:35.534Z,6.83
2023-03-05T00:55:03.380Z,6.80
2023-03-05T00:57:31.188Z,6.69
2023-03-05T00:59:59.019Z,6.78
2023-03-05T01:02:27.107Z,6.69
2023-03-05T01:04:54.997Z,6.66
2023-03-05T01:07:24.224Z,6.62
2023-03-05T01:09:52.079Z,6.74
2023-03-05T01:12:19.890Z,6.64
2023-03-05T01:14:47.693Z,6.77
2023-03-05T01:17:15.560Z,6.69
2023-03-05T01:19:43.394Z,6.50
2023-03-05T01:22:11.240Z,6.85
2023-03-05T01:24:40.457Z,6.86
2023-03-05T01:27:08.394Z,6.90
2023-03-05T01:29:37.613Z,6.86
2023-03-05T01:32:05.744Z,6.82
2023-03-05T01:34:33.643Z,6.80
2023-03-05T01:37:01.520Z,6.80
2023-03-05T01:39:29.359Z,6.58
2023-03-05T01:41:58.537Z,6.74
2023-03-05T01:44:28.372Z,6.73
2023-03-05T01:46:56.280Z,6.74
2023-03-05T01:49:26.893Z,6.72
2023-03-05T01:52:01.067Z,6.67
2023-03-05T01:54:33.672Z,6.55
2023-03-05T01:57:09.217Z,6.72
2023-03-05T01:59:38.035Z,6.72
2023-03-05T02:02:08.105Z,6.79
2023-03-05T02:04:42.112Z,6.48
2023-03-05T02:07:10.689Z,6.72
2023-03-05T02:09:42.438Z,6.59
2023-03-05T02:12:13.319Z,6.71
2023-03-05T02:14:43.674Z,6.66
2023-03-05T02:17:11.997Z,6.60
2023-03-05T02:19:51.524Z,6.66
2023-03-05T02:22:23.426Z,6.67
2023-03-05T02:24:52.440Z,6.70
2023-03-05T02:27:24.454Z,6.63
2023-03-05T02:29:53.597Z,6.60
2023-03-05T02:32:21.519Z,6.61
2023-03-05T02:34:49.338Z,6.53
2023-03-05T02:37:17.312Z,6.51
2023-03-05T02:39:46.568Z,6.39
2023-03-05T02:42:14.493Z,6.37
2023-03-05T02:44:42.394Z,6.49
2023-03-05T02:47:10.222Z,6.35
2023-03-05T02:49:38.110Z,6.46
2023-03-05T02:52:06.575Z,6.02
2023-03-05T02:54:34.477Z,6.40
2023-03-05T02:57:03.721Z,6.35
2023-03-05T02:59:31.592Z,6.35
2023-03-05T03:01:59.434Z,6.35
2023-03-05T03:04:27.337Z,6.22
2023-03-05T03:06:55.202Z,6.34
2023-03-05T03:09:23.041Z,6.24
2023-03-05T03:11:50.890Z,6.28
2023-03-05T03:14:20.291Z,6.26
2023-03-05T03:16:48.215Z,6.21
2023-03-05T03:19:16.481Z,6.21
2023-03-05T03:21:44.297Z,6.12
2023-03-05T03:24:12.183Z,6.19
2023-03-05T03:26:40.034Z,6.08
2023-03-05T03:29:07.970Z,6.06
2023-03-05T03:31:40.110Z,6.18
2023-03-05T03:34:07.940Z,6.04
2023-03-05T03:36:36.114Z,6.10
2023-03-05T03:39:05.995Z,5.80
2023-03-05T03:41:34.529Z,5.62
2023-03-05T03:44:03.521Z,6.05
2023-03-05T03:46:31.579Z,5.61
2023-03-05T03:49:00.838Z,6.02
2023-03-05T03:51:28.898Z,5.99
2023-03-05T03:53:57.379Z,5.90
2023-03-05T03:56:25.261Z,5.94
2023-03-05T03:58:54.174Z,5.92
2023-03-05T04:01:22.459Z,5.91
2023-03-05T04:03:50.407Z,5.86
2023-03-05T04:06:19.696Z,5.66
2023-03-05T04:08:47.579Z,5.56
2023-03-05T04:11:19.323Z,5.58
2023-03-05T04:13:47.545Z,5.71
2023-03-05T04:16:15.948Z,5.85
2023-03-05T04:18:44.336Z,5.81
2023-03-05T04:21:12.706Z,5.79
2023-03-05T04:23:42.305Z,5.81
2023-03-05T04:26:10.153Z,5.82
2023-03-05T04:28:38.056Z,5.80
2023-03-05T04:31:06.441Z,5.70
2023-03-05T04:33:34.857Z,5.74
2023-03-05T04:36:02.730Z,5.45
2023-03-05T04:38:30.621Z,5.82
2023-03-05T04:40:59.867Z,5.78
2023-03-05T04:43:27.793Z,5.80
2023-03-05T04:45:57.099Z,5.63
2023-03-05T04:48:24.913Z,5.65
2023-03-05T04:50:53.106Z,5.70
2023-03-05T04:53:20.979Z,5.73
2023-03-05T04:55:53.790Z,5.73
2023-03-05T04:58:23.087Z,5.79
2023-03-05T05:00:50.989Z,5.76
2023-03-05T05:03:19.015Z,5.76
2023-03-05T05:05:47.003Z,5.74
2023-03-05T05:08:14.856Z,5.74
2023-03-05T05:10:42.741Z,5.44
2023-03-05T05:13:10.657Z,5.67
2023-03-05T05:15:41.553Z,5.78
2023-03-05T05:18:09.403Z,5.78
2023-03-05T05:20:37.233Z,5.49
2023-03-05T05:23:05.118Z,5.82
2023-03-05T05:25:32.989Z,5.77
2023-03-05T05:28:00.906Z,5.49
2023-03-05T05:30:28.731Z,5.60
2023-03-05T05:32:58.510Z,5.66
2023-03-05T05:35:26.367Z,5.68
2023-03-05T05:37:54.465Z,5.73
2023-03-05T05:40:23.393Z,5.91
2023-03-05T05:42:51.229Z,5.93
2023-03-05T05:45:19.218Z,5.96
2023-03-05T05:47:47.141Z,6.24
2023-03-05T05:50:16.527Z,6.38
2023-03-05T05:52:44.371Z,6.52
2023-03-05T05:55:15.337Z,6.61
2023-03-05T05:57:43.196Z,6.73
2023-03-05T06:00:14.052Z,7.14
2023-03-05T06:02:42.654Z,7.11
2023-03-05T06:05:13.377Z,7.17
2023-03-05T06:07:43.101Z,7.29
2023-03-05T06:10:12.384Z,6.84
2023-03-05T06:12:40.284Z,7.10
2023-03-05T06:15:09.150Z,7.36
2023-03-05T06:17:37.062Z,7.40
2023-03-05T06:20:05.574Z,7.35
2023-03-05T06:22:36.683Z,7.56
2023-03-05T06:25:07.240Z,7.38
2023-03-05T06:27:39.245Z,7.20
2023-03-05T06:30:10.847Z,7.04
2023-03-05T06:32:39.786Z,7.04
2023-03-05T06:35:09.131Z,7.03
2023-03-05T06:37:37.030Z,7.04
2023-03-05T06:40:07.791Z,7.10
2023-03-05T06:42:35.933Z,6.98
2023-03-05T06:45:04.236Z,7.02
2023-03-05T06:47:32.593Z,7.07
2023-03-05T06:50:00.425Z,6.12
2023-03-05T06:52:28.309Z,7.18
2023-03-05T06:54:56.818Z,7.04
2023-03-05T06:57:26.096Z,7.27
2023-03-05T06:59:54.007Z,7.30
2023-03-05T07:02:22.102Z,7.51
2023-03-05T07:04:49.957Z,7.78
2023-03-05T07:07:20.240Z,7.88
2023-03-05T07:09:50.381Z,7.95
2023-03-05T07:12:20.680Z,8.18
2023-03-05T07:14:50.070Z,8.41
2023-03-05T07:17:19.866Z,8.45
2023-03-05T07:19:48.059Z,8.50
2023-03-05T07:22:17.479Z,8.68
2023-03-05T07:24:45.443Z,8.44
2023-03-05T07:27:13.346Z,9.50
2023-03-05T07:29:41.346Z,10.17
2023-03-05T07:32:10.956Z,10.00
2023-03-05T07:34:39.590Z,9.41
2023-03-05T07:37:08.355Z,9.20
2023-03-05T07:39:36.595Z,8.93
2023-03-05T07:42:04.808Z,6.16
2023-03-05T07:44:33.074Z,10.01
2023-03-05T07:47:01.647Z,11.13
2023-03-05T07:49:31.452Z,11.47
2023-03-05T07:51:59.314Z,11.82
2023-03-05T07:54:27.160Z,11.71
2023-03-05T07:56:57.274Z,11.10
2023-03-05T07:59:25.159Z,11.13
2023-03-05T08:01:53.067Z,11.68
2023-03-05T08:04:21.049Z,11.26
2023-03-05T08:06:50.717Z,11.02
2023-03-05T08:09:19.925Z,10.37
2023-03-05T08:11:47.870Z,10.36
2023-03-05T08:14:15.737Z,10.31
2023-03-05T08:16:44.090Z,9.91
2023-03-05T08:19:13.246Z,10.16
2023-03-05T08:21:41.139Z,9.91
2023-03-05T08:24:13.425Z,9.97
2023-03-05T08:26:45.424Z,10.25
2023-03-05T08:29:15.849Z,10.07
2023-03-05T08:31:54.962Z,9.94
2023-03-05T08:34:34.933Z,9.92
2023-03-05T08:37:10.420Z,9.96
2023-03-05T08:39:47.327Z,9.61
2023-03-05T08:42:16.145Z,9.63
2023-03-05T08:44:44.831Z,9.67
2023-03-05T08:47:16.341Z,9.26
2023-03-05T08:49:47.687Z,9.32
2023-03-05T08:52:26.666Z,9.80
2023-03-05T08:54:59.307Z,9.71
2023-03-05T08:57:28.624Z,9.71
2023-03-05T09:00:02.125Z,9.38
2023-03-05T09:02:30.168Z,9.61
2023-03-05T09:05:01.030Z,9.57
2023-03-05T09:07:29.848Z,9.92
2023-03-05T09:10:10.187Z,9.78
2023-03-05T09:12:40.659Z,9.81
2023-03-05T09:15:14.364Z,10.08
2023-03-05T09:17:46.483Z,9.99
2023-03-05T09:20:16.536Z,9.77
2023-03-05T09:22:46.141Z,10.02
2023-03-05T09:25:17.752Z,10.12
2023-03-05T09:27:48.654Z,10.16
2023-03-05T09:30:18.810Z,10.35
2023-03-05T09:32:51.471Z,10.27
2023-03-05T09:35:19.578Z,10.27
2023-03-05T09:37:47.509Z,10.22
2023-03-05T09:40:27.912Z,10.03
2023-03-05T09:43:07.708Z,10.32
2023-03-05T09:45:43.569Z,10.67
2023-03-05T09:48:26.387Z,10.45
2023-03-05T09:51:02.446Z,10.49
2023-03-05T09:53:40.967Z,10.50
2023-03-05T09:56:15.694Z,10.63
2023-03-05T09:58:47.355Z,10.98
2023-03-05T10:01:19.842Z,10.93
2023-03-05T10:03:58.571Z,10.55
2023-03-05T10:06:31.100Z,10.67
2023-03-05T10:09:05.590Z,10.54
2023-03-05T10:11:46.628Z,10.59
2023-03-05T10:14:23.105Z,10.87
2023-03-05T10:17:43.978Z,11.80
2023-03-05T10:20:28.502Z,12.57
2023-03-05T10:23:27.819Z,12.43
2023-03-05T10:26:17.881Z,12.49
2023-03-05T10:28:55.161Z,12.76
2023-03-05T10:31:37.742Z,12.39
2023-03-05T10:34:33.003Z,12.09
2023-03-05T10:37:15.150Z,11.77
2023-03-05T10:40:03.158Z,12.10
2023-03-05T10:42:39.644Z,11.96
2023-03-05T10:45:16.282Z,11.43
2023-03-05T10:47:49.568Z,11.50
2023-03-05T10:50:22.273Z,12.10
2023-03-05T10:53:01.323Z,12.35
2023-03-05T10:55:34.101Z,12.32
2023-03-05T10:58:11.401Z,12.15
2023-03-05T11:01:01.384Z,11.63
2023-03-05T11:03:48.090Z,11.11
2023-03-05T11:06:27.073Z,11.68
2023-03-05T11:08:58.163Z,10.94
2023-03-05T11:11:26.143Z,11.71
2023-03-05T11:13:57.324Z,12.63
2023-03-05T11:16:35.803Z,12.59
2023-03-05T11:19:22.957Z,12.81
2023-03-05T11:22:14.343Z,12.65
2023-03-05T11:25:07.725Z,13.06
2023-03-05T11:27:39.031Z,13.40
2023-03-05T11:30:24.990Z,12.97
2023-03-05T11:33:12.512Z,13.86
2023-03-05T11:35:45.190Z,13.30
2023-03-05T11:38:20.782Z,13.62
2023-03-05T11:40:52.060Z,13.68
2023-03-05T11:43:34.172Z,13.74
2023-03-05T11:46:05.583Z,14.44
2023-03-05T11:48:48.605Z,14.43
2023-03-05T11:51:22.472Z,14.57
2023-03-05T11:53:56.169Z,14.38
2023-03-05T11:56:38.105Z,14.86
2023-03-05T11:59:18.044Z,14.32
2023-03-05T12:01:50.149Z,14.14
2023-03-05T12:04:23.644Z,13.93
2023-03-05T12:09:51.147Z,14.27
2023-03-05T12:12:38.528Z,14.68
2023-03-05T12:15:27.247Z,14.41
2023-03-05T12:18:10.750Z,14.62
2023-03-05T12:21:00.411Z,14.54
2023-03-05T12:23:28.750Z,14.00
2023-03-05T12:26:02.395Z,13.82
2023-03-05T12:28:57.425Z,13.99
2023-03-05T12:31:39.607Z,14.40
2023-03-05T12:34:58.296Z,14.27
2023-03-05T12:38:01.808Z,14.08
2023-03-05T12:40:37.080Z,13.95
2023-03-05T12:43:07.527Z,12.52
2023-03-05T12:45:46.365Z,12.36
2023-03-05T12:48:44.135Z,11.95
2023-03-05T12:51:40.221Z,11.01
2023-03-05T12:54:30.369Z,11.56
2023-03-05T12:57:01.024Z,11.27
2023-03-05T12:59:44.117Z,11.26
2023-03-05T13:02:22.168Z,11.41
2023-03-05T13:04:59.618Z,11.39
2023-03-05T13:07:27.556Z,11.29
2023-03-05T13:09:58.721Z,10.87
2023-03-05T13:12:31.850Z,10.45
2023-03-05T13:15:04.614Z,10.75
2023-03-05T13:17:39.351Z,11.05
2023-03-05T13:20:26.743Z,10.99
2023-03-05T13:23:23.119Z,11.08
2023-03-05T13:26:04.606Z,10.69
2023-03-05T13:28:36.238Z,10.46
2023-03-05T13:31:13.732Z,10.78
2023-03-05T13:33:43.619Z,10.77
2023-03-05T13:36:17.309Z,10.29
2023-03-05T13:38:50.073Z,10.87
2023-03-05T13:41:30.208Z,10.41
2023-03-05T13:44:02.798Z,10.97
2023-03-05T13:46:34.990Z,10.69
2023-03-05T13:49:20.382Z,10.43
2023-03-05T13:51:50.174Z,11.00
2023-03-05T13:54:21.798Z,10.89
2023-03-05T13:56:53.687Z,11.01
2023-03-05T13:59:23.555Z,10.78
2023-03-05T14:01:53.091Z,10.78
2023-03-05T14:04:25.287Z,10.77
2023-03-05T14:06:59.451Z,10.62
2023-03-05T14:09:29.748Z,10.51
2023-03-05T14:12:02.033Z,10.48
2023-03-05T14:14:33.712Z,10.48
2023-03-05T14:17:23.664Z,10.16
2023-03-05T14:19:52.735Z,10.17
2023-03-05T14:22:36.973Z,9.15
2023-03-05T14:25:06.968Z,10.34
2023-03-05T14:27:38.555Z,10.42
2023-03-05T14:30:24.509Z,10.05
2023-03-05T14:32:55.430Z,10.09
2023-03-05T14:35:26.689Z,10.07
2023-03-05T14:38:06.063Z,9.67
2023-03-05T14:40:43.847Z,10.12
2023-03-05T14:43:14.971Z,8.53
2023-03-05T14:46:12.441Z,9.79
2023-03-05T14:48:51.193Z,9.83
2023-03-05T14:55:08.741Z,9.73
2023-03-05T15:01:09.774Z,9.78
2023-03-05T15:03:41.185Z,9.74
2023-03-05T15:06:35.215Z,9.50
2023-03-05T15:09:24.057Z,9.53
2023-03-05T15:11:56.402Z,9.57
2023-03-05T15:14:28.260Z,9.46
2023-03-05T15:18:03.134Z,9.31
2023-03-05T15:20:55.832Z,9.24
2023-03-05T15:23:46.120Z,7.06
2023-03-05T15:40:17.449Z,8.99
2023-03-05T15:43:33.312Z,8.17
2023-03-05T15:50:44.252Z,8.47
2023-03-05T15:54:16.884Z,8.71
2023-03-05T16:01:13.986Z,8.35
2023-03-05T16:08:12.722Z,6.63
2023-03-05T16:10:45.085Z,8.37
2023-03-05T16:13:19.839Z,8.35
2023-03-05T16:15:57.607Z,8.24
2023-03-05T16:18:30.321Z,8.26
2023-03-05T16:21:02.821Z,8.18
2023-03-05T16:23:40.538Z,8.21
2023-03-05T16:26:15.204Z,8.20
2023-03-05T16:28:44.089Z,8.18
2023-03-05T16:31:53.921Z,7.91
2023-03-05T16:34:26.529Z,8.08
2023-03-05T16:36:54.701Z,7.90
2023-03-05T16:39:36.488Z,7.86
2023-03-05T16:42:11.690Z,7.77
2023-03-05T16:44:40.676Z,7.83
2023-03-05T16:47:09.495Z,7.74
2023-03-05T16:49:47.153Z,7.73
2023-03-05T16:52:19.060Z,7.50
2023-03-05T16:54:50.029Z,7.55
2023-03-05T16:57:18.382Z,7.46
2023-03-05T16:59:49.033Z,6.27
2023-03-05T17:02:17.743Z,7.37
2023-03-05T17:04:49.233Z,6.33
2023-03-05T17:07:17.295Z,6.92
2023-03-05T17:09:46.381Z,7.23
2023-03-05T17:12:14.411Z,7.13
2023-03-05T17:14:43.088Z,7.10
2023-03-05T17:17:12.004Z,7.00
2023-03-05T17:19:40.372Z,6.95
2023-03-05T17:22:11.578Z,6.78
2023-03-05T17:24:42.763Z,6.62
2023-03-05T17:27:13.076Z,6.85
2023-03-05T17:29:41.036Z,6.41
2023-03-05T17:32:09.209Z,6.68
2023-03-05T17:34:37.181Z,6.68
2023-03-05T17:37:06.234Z,6.65
2023-03-05T17:39:35.906Z,6.58
2023-03-05T17:42:03.762Z,6.48
2023-03-05T17:44:31.757Z,6.52
2023-03-05T17:46:59.790Z,6.46
2023-03-05T17:49:27.646Z,6.34
2023-03-05T17:51:55.460Z,6.38
2023-03-05T17:54:23.844Z,6.34
2023-03-05T17:56:56.565Z,6.31
2023-03-05T17:59:26.117Z,6.31
2023-03-05T18:01:54.072Z,6.22
2023-03-05T18:04:25.553Z,6.24
2023-03-05T18:06:53.457Z,5.90
2023-03-05T18:09:21.373Z,6.12
2023-03-05T18:11:49.192Z,5.81
2023-03-05T18:14:19.405Z,6.03
2023-03-05T18:20:04.169Z,5.97
2023-03-05T18:23:09.455Z,5.88
2023-03-05T18:25:37.624Z,5.85
2023-03-05T18:28:10.604Z,5.90
2023-03-05T18:30:42.089Z,4.77
2023-03-05T18:33:19.879Z,5.64
2023-03-05T18:35:53.044Z,5.93
2023-03-05T18:38:26.584Z,5.84
2023-03-05T18:40:57.839Z,5.82
2023-03-05T18:43:54.361Z,5.77
2023-03-05T18:49:36.303Z,5.58
2023-03-05T18:52:32.249Z,5.13
2023-03-05T18:55:09.918Z,5.45
2023-03-05T18:57:50.372Z,5.44
2023-03-05T19:00:40.913Z,5.41
2023-03-05T19:03:45.510Z,5.37
2023-03-05T19:13:41.169Z,5.28
2023-03-05T19:16:34.896Z,5.26
2023-03-05T19:19:35.031Z,5.22
2023-03-05T19:22:27.113Z,3.16
2023-03-05T19:30:33.169Z,5.04
2023-03-05T19:33:20.448Z,4.70
2023-03-05T19:36:01.218Z,4.83
2023-03-05T19:38:37.150Z,4.98
2023-03-05T19:41:14.469Z,4.94
2023-03-05T19:46:36.465Z,4.86
2023-03-05T19:49:06.429Z,4.52
2023-03-05T19:52:24.499Z,4.82
2023-03-05T19:55:09.189Z,4.84
2023-03-05T19:57:46.277Z,4.58
2023-03-05T20:00:35.536Z,4.83
2023-03-05T20:03:06.515Z,4.60
2023-03-05T20:05:37.346Z,4.10
2023-03-05T20:08:26.407Z,4.68
2023-03-05T20:11:07.392Z,4.63
2023-03-05T20:17:01.561Z,4.61
2023-03-05T20:19:59.141Z,1.65
2023-03-05T20:26:10.098Z,4.45
2023-03-05T20:28:56.050Z,4.43
2023-03-05T20:34:41.692Z,4.30
2023-03-05T20:37:52.956Z,4.21
2023-03-05T20:40:35.647Z,4.29
2023-03-05T20:43:21.786Z,3.98
2023-03-05T20:48:59.544Z,4.21
2023-03-05T20:51:54.122Z,3.16
2023-03-05T20:54:27.510Z,4.16
2023-03-05T20:57:17.009Z,4.01
2023-03-05T20:59:59.631Z,4.10
2023-03-05T21:03:05.527Z,3.93
2023-03-05T21:05:42.020Z,4.11
2023-03-05T21:08:14.837Z,4.16
2023-03-05T21:10:50.249Z,3.77
2023-03-05T21:13:28.186Z,4.09
2023-03-05T21:16:01.676Z,4.03
2023-03-05T21:18:32.413Z,4.05
2023-03-05T21:21:16.793Z,3.99
2023-03-05T21:23:48.290Z,3.59
2023-03-05T21:26:20.208Z,3.77
2023-03-05T21:28:53.578Z,3.90
2023-03-05T21:31:34.058Z,3.73
2023-03-05T21:34:03.881Z,3.86
2023-03-05T21:36:33.091Z,3.65
2023-03-05T21:39:03.971Z,4.08
2023-03-05T21:41:34.601Z,4.09
2023-03-05T21:44:07.115Z,4.17
2023-03-05T21:46:37.652Z,4.18
2023-03-05T21:52:13.162Z,4.16
2023-03-05T21:54:47.138Z,4.21
2023-03-05T21:57:24.432Z,4.13
2023-03-05T22:00:07.547Z,4.06
2023-03-05T22:02:42.458Z,3.85
2023-03-05T22:05:23.938Z,3.63
2023-03-05T22:07:51.917Z,4.02
2023-03-05T22:10:23.436Z,3.96
2023-03-05T22:13:17.927Z,4.13
2023-03-05T22:15:48.036Z,3.98
2023-03-05T22:18:19.264Z,4.11
2023-03-05T22:20:47.574Z,3.71
2023-03-05T22:23:16.625Z,3.99
2023-03-05T22:25:45.229Z,4.24
2023-03-05T22:28:18.457Z,4.28
2023-03-05T22:30:49.707Z,4.23
2023-03-05T22:33:22.013Z,4.24
2023-03-05T22:35:51.281Z,3.75
2023-03-05T22:38:19.611Z,4.07
2023-03-05T22:40:49.478Z,3.96
2023-03-05T22:43:18.760Z,4.37
2023-03-05T22:45:46.769Z,4.14
2023-03-05T22:48:15.506Z,4.07
2023-03-05T22:50:45.365Z,4.20
2023-03-05T22:53:13.747Z,4.37
2023-03-05T22:55:43.120Z,4.26
2023-03-05T22:58:11.207Z,3.75
2023-03-05T23:00:39.505Z,3.48
2023-03-05T23:03:07.897Z,4.02
2023-03-05T23:05:36.456Z,4.09
2023-03-05T23:08:06.482Z,4.40
2023-03-05T23:10:34.896Z,4.41
2023-03-05T23:13:03.354Z,4.10
2023-03-05T23:15:33.029Z,4.20
2023-03-05T23:18:01.104Z,4.09
2023-03-05T23:20:32.222Z,4.02
2023-03-05T23:23:00.799Z,3.11
2023-03-05T23:25:31.813Z,3.87
2023-03-05T23:28:00.820Z,3.64
2023-03-05T23:30:29.570Z,3.83
2023-03-05T23:32:59.455Z,3.57
2023-03-05T23:35:29.311Z,3.63
2023-03-05T23:37:58.439Z,4.23
2023-03-05T23:40:30.363Z,4.41
2023-03-05T23:42:58.414Z,4.22
2023-03-05T23:45:26.974Z,4.10
2023-03-05T23:47:54.854Z,3.93
2023-03-05T23:50:26.196Z,3.86
2023-03-05T23:52:55.264Z,3.45
2023-03-05T23:55:25.787Z,3.19
2023-03-05T23:57:56.741Z,3.82
